Time;durP1;ratioP1;P1;durP2;ratioP2;P2;SDS_P1;SDS_P2;PMS_P1;PMS_P2;Temp;Humidity;BMP_temperature;BMP_pressure;BME280_temperature;BME280_humidity;BME280_pressure;Samples;Min_cycle;Max_cycle;Signal;HPM_P1;HPM_P2
2021/05/06 00:33:11;;;;;;;6.57;1.50;;;;;;;14.19;59.80;99875.97;5055059;28;20040;-67
2021/05/06 00:35:37;;;;;;;5.55;2.05;;;;;;;14.17;59.68;99870.78;5053178;28;20021;-67
2021/05/06 00:38:42;;;;;;;4.45;1.90;;;;;;;14.16;59.76;99873.84;5056784;28;20049;-68
2021/05/06 01:05:09;;;;;;;5.57;2.25;;;;;;;13.83;59.52;99860.47;5056341;28;20028;-67
2021/05/06 01:12:32;;;;;;;5.47;2.15;;;;;;;13.76;59.69;99838.19;5049421;28;20032;-67
2021/05/06 01:14:58;;;;;;;4.35;2.10;;;;;;;13.75;59.61;99850.25;5038715;28;20461;-67
2021/05/06 01:17:23;;;;;;;4.57;2.30;;;;;;;13.61;59.69;99831.16;5059492;28;20453;-67
2021/05/06 01:19:49;;;;;;;3.25;1.98;;;;;;;13.66;59.86;99842.78;5058254;28;20028;-67
2021/05/06 01:22:14;;;;;;;5.57;2.50;;;;;;;13.64;59.91;99836.00;5056253;28;20025;-67
2021/05/06 01:24:40;;;;;;;3.42;2.08;;;;;;;13.61;59.94;99836.63;5056137;28;20052;-67
2021/05/06 01:27:16;;;;;;;8.00;2.50;;;;;;;13.60;60.02;99841.31;5056377;28;20028;-67
2021/05/06 01:34:36;;;;;;;3.72;2.30;;;;;;;13.52;60.06;99825.63;5053825;28;20055;-67
2021/05/06 01:37:15;;;;;;;4.97;2.20;;;;;;;13.51;60.11;99822.06;5047221;28;20037;-67
2021/05/06 01:42:40;;;;;;;4.15;2.10;;;;;;;13.46;59.98;99821.41;5050275;28;20033;-67
2021/05/06 01:58:18;;;;;;;6.00;2.55;;;;;;;13.56;60.10;99803.91;5056354;28;20036;-67
2021/05/06 02:00:56;;;;;;;3.85;2.30;;;;;;;13.59;60.23;99803.28;5047013;28;20052;-67
2021/05/06 02:03:21;;;;;;;6.53;2.65;;;;;;;13.59;60.08;99787.66;5052401;28;20049;-67
2021/05/06 02:05:47;;;;;;;3.78;2.30;;;;;;;13.63;59.96;99780.44;5055655;28;20029;-67
2021/05/06 02:08:12;;;;;;;4.45;2.33;;;;;;;13.64;59.93;99783.97;5056051;28;20025;-67
2021/05/06 02:10:38;;;;;;;4.15;2.25;;;;;;;13.65;60.01;99780.91;5050830;28;20029;-67
2021/05/06 02:13:03;;;;;;;5.57;2.50;;;;;;;13.66;59.85;99789.94;5055867;28;20013;-67
2021/05/06 02:15:33;;;;;;;3.72;2.17;;;;;;;13.66;59.97;99787.22;5055359;28;20025;-67
2021/05/06 02:17:59;;;;;;;4.20;2.25;;;;;;;13.65;59.99;99786.38;5061167;28;20078;-67
2021/05/06 02:20:24;;;;;;;4.85;2.70;;;;;;;13.67;60.04;99775.94;5052353;28;20037;-67
2021/05/06 02:22:51;;;;;;;5.05;2.20;;;;;;;13.69;60.11;99778.34;5055177;28;20075;-68
2021/05/06 02:25:18;;;;;;;3.45;2.45;;;;;;;13.68;60.17;99773.97;5045444;28;20464;-67
2021/05/06 02:27:43;;;;;;;6.50;2.30;;;;;;;13.66;60.25;99779.78;5049398;28;20052;-67
2021/05/06 02:30:10;;;;;;;4.50;2.33;;;;;;;13.67;60.27;99767.72;5047288;28;20025;-67
2021/05/06 02:32:36;;;;;;;3.15;1.80;;;;;;;13.67;60.27;99759.50;5055249;28;20021;-68
2021/05/06 02:35:03;;;;;;;4.30;2.00;;;;;;;13.68;60.34;99766.59;5050518;28;20116;-67
2021/05/06 02:37:28;;;;;;;3.35;1.98;;;;;;;13.68;60.49;99757.53;5051489;28;20047;-67
2021/05/06 02:39:54;;;;;;;4.70;2.10;;;;;;;13.67;60.42;99751.28;5049105;28;20033;-67
2021/05/06 02:42:20;;;;;;;3.50;2.47;;;;;;;13.60;60.31;99734.47;5048947;28;20045;-68
2021/05/06 02:44:45;;;;;;;3.42;1.98;;;;;;;13.64;60.18;99738.19;5048027;28;20033;-67
2021/05/06 02:47:11;;;;;;;3.08;1.90;;;;;;;13.62;60.56;99742.38;5051414;28;20095;-67
2021/05/06 02:49:42;;;;;;;3.95;2.35;;;;;;;13.62;60.59;99734.97;5055753;28;20108;-67
2021/05/06 02:52:12;;;;;;;4.30;2.08;;;;;;;13.59;60.58;99730.13;5055144;28;20017;-67
2021/05/06 02:54:42;;;;;;;5.07;1.85;;;;;;;13.58;60.53;99736.72;5045827;28;20107;-67
2021/05/06 02:57:19;;;;;;;3.30;1.98;;;;;;;13.47;60.53;99717.00;5049522;28;20055;-67
2021/05/06 03:05:29;;;;;;;4.75;2.22;;;;;;;13.44;60.75;99736.81;5024437;28;20049;-67
2021/05/06 03:08:16;;;;;;;4.68;2.08;;;;;;;13.40;60.95;99735.81;5050038;28;20082;-67
2021/05/06 03:10:56;;;;;;;6.38;2.10;;;;;;;13.47;60.82;99733.44;5051195;28;20489;-67
2021/05/06 03:24:30;;;;;;;5.15;2.17;;;;;;;13.50;60.94;99721.06;5046401;28;20041;-68
2021/05/06 03:26:57;;;;;;;5.55;2.00;;;;;;;13.36;60.94;99699.19;5053241;28;20029;-67
2021/05/06 03:29:31;;;;;;;4.30;2.30;;;;;;;13.51;60.81;99714.44;5049437;28;20036;-67
2021/05/06 03:42:48;;;;;;;4.40;2.05;;;;;;;13.50;60.97;99723.78;5058649;28;20076;-67
2021/05/06 04:03:15;;;;;;;4.45;1.90;;;;;;;13.46;61.18;99725.56;5058473;28;20051;-67
2021/05/06 04:18:25;;;;;;;2.97;2.08;;;;;;;13.26;61.53;99683.06;5018308;28;20110;-67
2021/05/06 04:26:56;;;;;;;2.78;2.10;;;;;;;13.25;61.89;99701.41;5041545;28;20036;-68
2021/05/06 04:37:29;;;;;;;3.47;1.90;;;;;;;13.05;62.06;99700.81;5047771;28;20109;-67
2021/05/06 04:40:02;;;;;;;3.75;1.90;;;;;;;13.16;62.23;99706.84;5056731;28;20104;-67
2021/05/06 04:53:30;;;;;;;4.22;2.13;;;;;;;13.12;62.38;99726.94;4969328;28;21607;-67
2021/05/06 05:03:58;;;;;;;6.18;2.17;;;;;;;12.99;62.69;99715.72;5044512;28;20044;-67
2021/05/06 05:06:31;;;;;;;2.75;2.05;;;;;;;13.06;62.54;99724.31;5047361;28;20025;-67
2021/05/06 05:26:47;;;;;;;3.50;2.10;;;;;;;13.00;63.02;99725.56;5055986;28;20092;-68
2021/05/06 05:29:12;;;;;;;2.90;1.90;;;;;;;13.14;62.88;99739.19;5055485;28;20037;-67
2021/05/06 05:31:38;;;;;;;4.38;2.15;;;;;;;13.16;62.92;99733.38;5056708;28;20092;-67
2021/05/06 05:34:47;;;;;;;4.40;2.28;;;;;;;13.18;62.96;99736.63;5049793;28;20052;-67
2021/05/06 05:36:55;;;;;;;5.78;2.40;;;;;;;13.20;62.83;99737.94;5046449;28;20040;-69
2021/05/06 05:55:16;;;;;;;5.05;2.42;;;;;;;13.22;63.09;99726.69;5031448;28;20413;-68
2021/05/06 05:57:42;;;;;;;3.50;2.60;;;;;;;13.23;63.07;99737.31;5030047;28;20107;-68
2021/05/06 06:00:08;;;;;;;4.88;2.60;;;;;;;13.26;62.82;99743.28;5030758;28;20029;-68
2021/05/06 06:02:35;;;;;;;3.75;2.45;;;;;;;12.83;62.85;99670.72;5020202;28;20026;-68
2021/05/06 06:05:01;;;;;;;5.82;3.00;;;;;;;13.27;62.92;99742.16;5030358;28;20021;-68
2021/05/06 06:07:26;;;;;;;6.60;3.20;;;;;;;13.27;62.96;99742.16;5034057;28;20924;-69
2021/05/06 06:09:52;;;;;;;5.18;2.90;;;;;;;13.20;63.29;99734.38;5033188;28;20457;-68
2021/05/06 06:12:17;;;;;;;6.07;3.13;;;;;;;13.31;63.21;99745.88;5034711;28;20557;-65
2021/05/06 06:14:51;;;;;;;5.40;2.90;;;;;;;13.37;63.26;99750.94;5032876;28;20048;-66
2021/05/06 06:17:16;;;;;;;4.35;2.92;;;;;;;13.46;63.23;99758.41;5034863;28;20033;-67
2021/05/06 06:19:47;;;;;;;3.75;2.25;;;;;;;13.54;63.16;99761.19;5026344;28;20498;-68
2021/05/06 06:22:14;;;;;;;6.05;2.83;;;;;;;13.61;63.27;99762.66;5033991;28;20033;-67
2021/05/06 06:24:41;;;;;;;5.68;2.92;;;;;;;13.65;63.20;99761.72;5032997;28;20042;-68
2021/05/06 06:27:06;;;;;;;5.57;2.78;;;;;;;13.75;63.08;99765.31;5023714;28;20026;-68
2021/05/06 06:29:32;;;;;;;3.65;2.85;;;;;;;13.77;63.03;99763.06;5033872;28;20100;-67
2021/05/06 06:32:00;;;;;;;6.07;2.45;;;;;;;13.69;62.99;99742.72;5024584;28;20128;-68
2021/05/06 06:34:25;;;;;;;6.03;2.95;;;;;;;13.81;63.18;99764.88;5018669;28;20056;-67
2021/05/06 06:36:50;;;;;;;4.53;2.47;;;;;;;13.83;63.13;99770.03;5033587;28;20025;-63
2021/05/06 06:39:16;;;;;;;4.32;2.55;;;;;;;13.82;63.09;99769.22;5033546;28;20029;-66
2021/05/06 06:41:43;;;;;;;4.50;2.25;;;;;;;13.81;63.19;99769.53;5031892;28;20156;-66
2021/05/06 06:44:09;;;;;;;4.70;2.20;;;;;;;13.79;63.30;99769.06;5033573;28;20547;-67
2021/05/06 06:46:35;;;;;;;4.00;2.70;;;;;;;13.72;63.34;99768.72;5031657;28;20108;-67
2021/05/06 06:49:01;;;;;;;4.72;2.47;;;;;;;13.27;63.29;99701.06;5023493;28;20026;-68
2021/05/06 06:51:27;;;;;;;4.10;2.42;;;;;;;13.75;63.27;99776.28;5034297;28;20079;-67
2021/05/06 06:53:53;;;;;;;2.88;2.00;;;;;;;13.77;63.31;99774.84;5034183;28;20612;-69
2021/05/06 06:56:18;;;;;;;3.45;1.90;;;;;;;13.73;63.29;99781.25;5026623;28;20477;-67
2021/05/06 06:58:48;;;;;;;2.63;2.05;;;;;;;13.68;63.36;99769.31;5033757;28;20068;-67
2021/05/06 07:01:13;;;;;;;4.43;2.30;;;;;;;13.71;63.33;99780.78;5027942;28;20033;-67
2021/05/06 07:03:39;;;;;;;4.05;2.00;;;;;;;13.74;63.26;99783.69;5025872;28;20030;-67
2021/05/06 07:06:04;;;;;;;3.50;2.00;;;;;;;13.80;63.37;99784.38;5030439;28;20034;-68
2021/05/06 07:08:35;;;;;;;4.65;1.83;;;;;;;13.84;62.99;99777.13;5034492;28;20079;-67
2021/05/06 07:11:03;;;;;;;3.45;1.73;;;;;;;13.75;62.83;99759.84;5041970;28;20554;-68
2021/05/06 07:13:30;;;;;;;5.47;2.22;;;;;;;13.89;62.73;99774.25;5031917;28;20017;-67
2021/05/06 07:16:01;;;;;;;2.72;1.70;;;;;;;13.92;62.62;99764.59;5032419;28;20481;-67
2021/05/06 07:18:31;;;;;;;2.55;1.48;;;;;;;14.07;62.53;99769.66;5041546;28;20047;-68
2021/05/06 07:20:58;;;;;;;1.83;1.42;;;;;;;14.15;62.17;99774.34;5038889;28;20060;-67
2021/05/06 07:23:24;;;;;;;2.50;1.70;;;;;;;14.22;62.21;99773.06;5032910;28;20047;-67
2021/05/06 07:25:53;;;;;;;2.53;1.38;;;;;;;14.30;61.76;99772.28;5033688;28;20021;-68
2021/05/06 07:28:20;;;;;;;6.28;1.60;;;;;;;14.39;61.58;99777.78;5034285;28;20026;-66
2021/05/06 07:30:49;;;;;;;2.88;1.30;;;;;;;14.48;61.28;99775.88;5031393;28;20021;-67
2021/05/06 07:33:16;;;;;;;4.55;1.80;;;;;;;14.56;60.86;99782.50;5037653;28;20069;-68
2021/05/06 07:35:42;;;;;;;5.93;1.80;;;;;;;14.59;60.60;99788.16;5042254;28;20036;-67
2021/05/06 07:38:08;;;;;;;5.63;1.83;;;;;;;14.64;60.58;99793.47;5024798;28;20021;-67
2021/05/06 07:40:35;;;;;;;4.38;1.98;;;;;;;14.72;60.68;99780.13;5041600;28;20051;-68
2021/05/06 07:43:01;;;;;;;7.95;2.30;;;;;;;14.80;60.71;99784.81;5025793;28;20052;-69
2021/05/06 07:45:27;;;;;;;8.00;2.70;;;;;;;14.93;60.49;99796.75;5053694;28;20115;-70
2021/05/06 07:47:53;;;;;;;9.32;2.60;;;;;;;14.79;60.53;99767.53;5049369;28;20072;-69
2021/05/06 07:50:19;;;;;;;7.38;2.33;;;;;;;14.98;60.48;99791.13;5056238;28;20125;-69
2021/05/06 07:52:47;;;;;;;9.27;2.78;;;;;;;14.91;60.49;99777.09;5057369;28;20048;-69
2021/05/06 07:55:13;;;;;;;7.53;2.50;;;;;;;15.15;60.21;99801.28;5043651;28;20028;-69
2021/05/06 07:57:39;;;;;;;8.27;2.20;;;;;;;15.17;60.24;99800.97;5054206;28;20120;-69
2021/05/06 08:00:09;;;;;;;6.68;2.75;;;;;;;15.28;60.03;99810.50;5047546;28;20085;-69
2021/05/06 08:02:35;;;;;;;12.65;2.75;;;;;;;15.20;60.02;99792.91;5056127;28;20063;-70
2021/05/06 08:05:00;;;;;;;6.72;3.13;;;;;;;15.23;59.73;99789.50;5054973;28;20028;-70
2021/05/06 08:07:26;;;;;;;6.55;2.60;;;;;;;15.46;60.02;99805.78;5056871;28;20970;-68
2021/05/06 08:09:51;;;;;;;10.07;2.50;;;;;;;15.58;59.54;99810.59;5052820;28;20035;-68
2021/05/06 08:12:19;;;;;;;7.05;2.63;;;;;;;15.61;59.43;99793.47;5046194;28;20022;-69
2021/05/06 08:14:44;;;;;;;10.25;2.85;;;;;;;15.73;59.14;99804.59;5047914;28;20025;-68
2021/05/06 08:17:10;;;;;;;10.55;2.40;;;;;;;15.86;59.27;99816.56;5047751;28;20029;-69
2021/05/06 08:19:35;;;;;;;9.18;2.50;;;;;;;15.95;58.85;99813.75;5055680;28;20207;-68
2021/05/06 08:22:01;;;;;;;13.50;3.08;;;;;;;15.99;58.70;99811.97;5056418;28;20404;-68
2021/05/06 08:24:27;;;;;;;7.53;2.65;;;;;;;15.99;58.62;99811.16;5055240;28;20036;-68
2021/05/06 08:26:52;;;;;;;9.23;3.20;;;;;;;16.05;58.71;99809.84;5049170;28;20041;-69
2021/05/06 08:29:19;;;;;;;15.07;2.83;;;;;;;16.05;58.72;99813.41;5052799;28;20029;-68
2021/05/06 08:31:45;;;;;;;11.98;2.90;;;;;;;16.09;59.03;99819.06;5056692;28;20160;-68
2021/05/06 08:34:10;;;;;;;12.75;2.35;;;;;;;16.14;59.04;99818.06;5055648;28;20096;-68
2021/05/06 08:36:35;;;;;;;7.28;2.22;;;;;;;16.16;58.78;99822.09;5068942;28;20027;-69
2021/05/06 08:39:03;;;;;;;8.90;2.28;;;;;;;16.19;58.84;99821.44;5056463;28;20029;-68
2021/05/06 08:41:29;;;;;;;4.90;2.17;;;;;;;16.24;58.95;99811.38;5055379;28;20048;-68
2021/05/06 08:44:00;;;;;;;4.43;1.55;;;;;;;16.12;58.35;99774.38;5056172;28;20025;-68
2021/05/06 08:46:33;;;;;;;6.03;1.90;;;;;;;16.21;57.89;99788.91;5050403;28;20029;-67
2021/05/06 08:49:01;;;;;;;8.95;1.67;;;;;;;16.27;57.48;99796.97;5055341;28;20059;-69
2021/05/06 08:51:28;;;;;;;9.38;1.55;;;;;;;16.27;57.26;99797.78;5055845;28;20040;-67
2021/05/06 08:53:53;;;;;;;5.63;1.33;;;;;;;16.24;57.33;99809.41;5055504;28;20028;-68
2021/05/06 08:56:19;;;;;;;5.70;1.70;;;;;;;16.22;57.47;99803.47;5048342;28;20033;-69
2021/05/06 08:58:44;;;;;;;5.15;1.73;;;;;;;16.25;57.30;99807.50;5055269;28;20029;-68
2021/05/06 09:01:10;;;;;;;3.90;1.90;;;;;;;16.27;57.34;99799.72;5055522;28;20052;-68
2021/05/06 09:03:35;;;;;;;5.22;1.20;;;;;;;16.35;57.45;99802.41;5055723;28;20028;-69
2021/05/06 09:06:20;;;;;;;5.60;1.30;;;;;;;16.48;56.85;99808.81;5055819;28;20087;-68
2021/05/06 09:09:00;;;;;;;3.75;1.50;;;;;;;16.58;56.43;99813.13;5047872;28;20059;-69
2021/05/06 09:11:35;;;;;;;3.83;0.90;;;;;;;16.74;55.79;99818.03;5055505;28;20506;-68
2021/05/06 09:14:05;;;;;;;1.83;0.90;;;;;;;16.82;55.65;99812.50;5055771;28;20020;-68
2021/05/06 09:16:40;;;;;;;1.92;0.82;;;;;;;16.92;55.55;99816.00;5057324;28;20063;-69
2021/05/06 09:19:08;;;;;;;2.53;0.85;;;;;;;16.98;55.66;99817.41;5063508;28;20036;-69
2021/05/06 09:21:36;;;;;;;1.35;0.98;;;;;;;17.02;55.48;99812.03;5056271;28;20037;-68
2021/05/06 09:24:24;;;;;;;5.15;1.40;;;;;;;17.02;55.15;99812.03;5055254;28;20025;-68
2021/05/06 09:26:58;;;;;;;3.35;1.08;;;;;;;16.98;55.76;99798.16;5055809;28;20389;-70
2021/05/06 09:29:41;;;;;;;4.35;1.00;;;;;;;17.13;55.37;99796.72;5054346;28;20099;-69
2021/05/06 09:32:19;;;;;;;4.03;1.27;;;;;;;17.17;55.40;99799.63;5054867;28;20029;-69
2021/05/06 09:34:47;;;;;;;5.25;1.25;;;;;;;17.20;55.29;99807.19;5037233;28;20025;-68
2021/05/06 09:37:29;;;;;;;1.75;1.20;;;;;;;17.26;54.90;99808.63;5056394;28;20032;-68
2021/05/06 09:39:57;;;;;;;3.22;1.05;;;;;;;17.30;55.28;99812.28;5054265;28;20032;-68
2021/05/06 09:42:35;;;;;;;1.88;1.10;;;;;;;17.29;55.19;99791.38;5054786;28;20527;-69
2021/05/06 09:45:01;;;;;;;2.10;1.30;;;;;;;17.50;55.17;99807.88;5054854;28;20036;-69
2021/05/06 09:47:26;;;;;;;5.05;1.20;;;;;;;17.62;55.33;99807.94;5055096;28;20025;-68
2021/05/06 09:49:51;;;;;;;5.93;1.30;;;;;;;17.75;54.72;99805.19;5049422;28;20024;-68
2021/05/06 09:52:17;;;;;;;2.45;1.20;;;;;;;17.74;53.94;99784.28;5055287;28;20036;-68
2021/05/06 09:54:48;;;;;;;2.55;1.42;;;;;;;17.94;53.72;99807.38;5054255;28;20033;-68
2021/05/06 09:57:25;;;;;;;3.45;1.60;;;;;;;18.03;53.33;99802.59;5054657;28;20082;-69
2021/05/06 09:59:50;;;;;;;2.90;1.35;;;;;;;18.15;53.50;99809.28;5054807;28;20025;-68
2021/05/06 10:02:18;;;;;;;3.20;1.23;;;;;;;17.85;52.54;99754.31;5054497;28;20055;-68
2021/05/06 10:04:45;;;;;;;2.25;1.20;;;;;;;18.27;52.13;99809.28;5054810;28;20028;-68
2021/05/06 10:07:25;;;;;;;4.90;1.25;;;;;;;18.29;51.53;99811.72;5054722;28;20025;-68
2021/05/06 10:09:59;;;;;;;2.65;1.30;;;;;;;18.37;51.61;99808.03;5036645;28;20037;-68
2021/05/06 10:12:30;;;;;;;4.57;1.40;;;;;;;18.51;51.95;99821.50;5054087;28;20048;-67
2021/05/06 10:14:57;;;;;;;1.67;1.25;;;;;;;18.61;51.66;99817.44;5053991;28;20024;-67
2021/05/06 10:17:25;;;;;;;1.50;0.90;;;;;;;18.66;51.21;99809.72;5058482;28;20449;-68
2021/05/06 10:19:50;;;;;;;1.77;1.00;;;;;;;18.69;51.18;99811.78;5055696;28;20108;-68
2021/05/06 10:22:19;;;;;;;2.20;1.60;;;;;;;18.76;51.53;99802.13;5054590;28;20036;-68
2021/05/06 10:24:46;;;;;;;2.90;2.08;;;;;;;18.76;51.46;99786.34;5054187;28;20025;-68
2021/05/06 10:27:23;;;;;;;5.40;2.00;;;;;;;18.85;51.46;99794.47;5054241;28;20040;-67
2021/05/06 10:29:53;;;;;;;3.08;1.83;;;;;;;18.82;51.17;99784.94;5042707;28;20032;-67
2021/05/06 10:32:19;;;;;;;3.50;1.40;;;;;;;18.87;51.27;99795.75;5054047;28;20017;-66
2021/05/06 10:34:47;;;;;;;1.70;1.20;;;;;;;18.94;50.74;99795.19;5052296;28;20044;-66
2021/05/06 10:37:13;;;;;;;2.13;1.30;;;;;;;18.75;51.01;99743.31;5046095;28;20449;-66
2021/05/06 10:39:41;;;;;;;2.70;1.30;;;;;;;19.26;50.08;99780.69;5054182;28;20024;-67
2021/05/06 10:42:24;;;;;;;1.85;1.20;;;;;;;19.42;49.52;99770.47;5051295;28;20103;-66
2021/05/06 10:44:50;;;;;;;2.45;1.15;;;;;;;19.48;49.40;99773.78;5054427;28;20029;-66
2021/05/06 10:47:17;;;;;;;2.33;1.10;;;;;;;19.56;49.73;99775.56;5056403;28;20029;-66
2021/05/06 10:49:43;;;;;;;2.33;1.25;;;;;;;19.64;49.49;99766.31;5057251;28;20505;-66
2021/05/06 10:52:10;;;;;;;1.45;1.13;;;;;;;19.57;49.02;99759.78;5058441;28;20562;-66
2021/05/06 10:54:50;;;;;;;2.22;1.30;;;;;;;19.68;48.99;99766.41;5057684;28;20025;-66
2021/05/06 10:57:16;;;;;;;2.20;1.05;;;;;;;19.79;49.01;99774.97;5059026;28;20025;-67
2021/05/06 10:59:48;;;;;;;1.52;1.00;;;;;;;19.88;48.31;99769.28;5049111;28;20075;-66
2021/05/06 11:02:40;;;;;;;1.90;1.27;;;;;;;19.92;48.28;99750.81;5058728;28;20366;-66
2021/05/06 11:05:18;;;;;;;1.50;1.00;;;;;;;20.00;48.15;99765.63;5055038;28;20128;-66
2021/05/06 11:08:03;;;;;;;1.75;0.98;;;;;;;20.12;47.65;99769.06;5051695;28;20489;-67
2021/05/06 11:10:50;;;;;;;2.15;0.90;;;;;;;20.12;47.75;99765.53;5055546;28;20016;-66
2021/05/06 11:13:17;;;;;;;2.15;1.10;;;;;;;20.13;47.48;99765.16;5058455;28;20447;-66
2021/05/06 11:15:43;;;;;;;2.35;1.20;;;;;;;19.80;47.59;99710.19;5053926;28;20033;-66
2021/05/06 11:18:11;;;;;;;2.40;0.80;;;;;;;20.24;47.40;99767.38;5061034;28;20030;-67
2021/05/06 11:20:37;;;;;;;3.05;1.30;;;;;;;20.33;47.59;99758.91;5067073;28;20397;-66
2021/05/06 11:23:03;;;;;;;1.10;0.98;;;;;;;20.41;47.20;99758.69;5041539;28;20044;-67
2021/05/06 11:25:29;;;;;;;1.63;1.10;;;;;;;20.45;46.86;99747.69;5057882;28;20041;-66
2021/05/06 11:28:00;;;;;;;1.83;0.90;;;;;;;20.40;46.46;99745.22;5058623;28;20031;-67
2021/05/06 11:30:35;;;;;;;1.63;1.13;;;;;;;20.42;46.67;99745.63;5058499;28;20156;-66
2021/05/06 11:33:18;;;;;;;3.20;1.02;;;;;;;20.48;46.30;99746.16;5058151;28;20037;-66
2021/05/06 11:36:04;;;;;;;1.48;1.00;;;;;;;20.53;46.48;99737.59;5046756;28;20056;-66
2021/05/06 11:38:38;;;;;;;2.88;1.35;;;;;;;20.40;46.35;99753.53;5058657;28;20032;-68
2021/05/06 11:41:14;;;;;;;2.08;1.10;;;;;;;20.34;46.50;99747.44;5049452;28;20114;-68
2021/05/06 11:44:00;;;;;;;3.10;1.05;;;;;;;20.34;46.55;99743.88;5055267;28;20032;-68
2021/05/06 11:46:32;;;;;;;2.25;0.98;;;;;;;20.43;46.45;99739.75;5055289;28;20585;-68
2021/05/06 11:49:03;;;;;;;2.95;1.00;;;;;;;20.51;46.42;99737.94;5057247;28;20036;-68
2021/05/06 11:51:43;;;;;;;1.42;0.98;;;;;;;20.53;46.17;99749.44;5057757;28;20028;-67
2021/05/06 11:54:12;;;;;;;4.35;1.08;;;;;;;20.25;46.38;99697.03;5049939;28;20466;-68
2021/05/06 11:56:40;;;;;;;1.80;1.05;;;;;;;20.68;46.17;99744.22;5055764;28;20056;-67
2021/05/06 11:59:07;;;;;;;1.67;0.98;;;;;;;20.66;45.86;99729.94;5065534;28;20040;-67
2021/05/06 12:01:33;;;;;;;1.73;1.05;;;;;;;20.84;46.04;99742.22;5056285;28;20065;-68
2021/05/06 12:03:59;;;;;;;1.95;0.90;;;;;;;20.83;45.71;99717.66;5056968;28;20086;-68
2021/05/06 12:06:35;;;;;;;1.80;1.20;;;;;;;21.06;45.45;99735.13;5057515;28;20521;-68
2021/05/06 12:09:06;;;;;;;3.17;1.30;;;;;;;21.13;45.16;99737.25;5057822;28;20068;-68
2021/05/06 12:11:36;;;;;;;1.95;0.90;;;;;;;21.20;44.78;99731.84;5055872;28;20458;-68
2021/05/06 12:14:02;;;;;;;1.40;1.00;;;;;;;21.17;44.95;99720.69;5057076;28;20075;-67
2021/05/06 12:16:27;;;;;;;1.70;1.00;;;;;;;21.20;44.68;99731.03;5059481;28;20029;-68
2021/05/06 12:19:00;;;;;;;2.15;1.00;;;;;;;21.19;44.82;99724.69;5061455;28;20151;-67
2021/05/06 12:21:32;;;;;;;2.15;1.10;;;;;;;21.18;44.96;99734.16;5048244;28;20044;-67
2021/05/06 12:23:59;;;;;;;4.18;1.05;;;;;;;21.18;44.87;99727.84;5053850;28;20083;-68
2021/05/06 12:26:26;;;;;;;3.17;1.10;;;;;;;21.17;45.09;99723.47;5056983;28;20021;-68
2021/05/06 12:28:52;;;;;;;2.70;0.90;;;;;;;21.16;45.01;99724.63;5056816;28;20098;-67
2021/05/06 12:31:18;;;;;;;2.08;1.13;;;;;;;21.13;45.16;99723.41;5054260;28;20132;-68
2021/05/06 12:33:43;;;;;;;2.13;0.88;;;;;;;21.09;45.23;99730.03;5050052;28;20464;-67
2021/05/06 12:36:12;;;;;;;1.35;0.90;;;;;;;21.10;45.41;99724.13;5057584;28;20094;-67
2021/05/06 12:38:37;;;;;;;4.47;1.10;;;;;;;21.10;45.14;99726.88;5055447;28;20036;-67
2021/05/06 12:41:05;;;;;;;1.48;1.00;;;;;;;21.14;45.03;99724.19;5055957;28;20045;-67
2021/05/06 12:43:31;;;;;;;3.42;1.10;;;;;;;21.13;44.85;99723.41;5056433;28;20021;-67
2021/05/06 12:46:04;;;;;;;0.93;0.80;;;;;;;21.17;44.76;99737.31;5055982;28;20064;-67
2021/05/06 12:48:35;;;;;;;3.70;0.95;;;;;;;21.25;44.70;99739.06;5056593;28;20057;-68
2021/05/06 12:51:02;;;;;;;2.92;1.27;;;;;;;21.35;44.53;99727.38;5052946;28;20482;-67
2021/05/06 12:53:27;;;;;;;1.50;0.90;;;;;;;21.51;44.39;99723.69;5055257;28;20028;-67
2021/05/06 12:55:53;;;;;;;4.10;1.33;;;;;;;21.61;44.10;99725.06;5056479;28;20025;-68
2021/05/06 12:58:24;;;;;;;4.45;1.20;;;;;;;21.58;44.01;99720.25;5056022;28;20029;-68
2021/05/06 13:00:52;;;;;;;2.47;1.02;;;;;;;21.62;43.67;99718.34;5049385;28;20029;-68
2021/05/06 13:03:25;;;;;;;2.88;1.10;;;;;;;21.64;43.49;99719.56;5041703;28;20029;-67
2021/05/06 13:05:51;;;;;;;3.03;1.25;;;;;;;21.62;43.40;99727.44;5049313;28;20040;-67
2021/05/06 13:08:16;;;;;;;0.98;0.85;;;;;;;21.54;43.08;99717.38;5046061;28;20028;-67
2021/05/06 13:10:47;;;;;;;1.67;1.00;;;;;;;21.35;43.22;99693.28;5054730;28;20174;-68
2021/05/06 13:13:38;;;;;;;2.45;1.13;;;;;;;21.43;43.41;99717.19;5054261;28;20024;-67
2021/05/06 13:16:05;;;;;;;2.47;1.20;;;;;;;21.41;43.69;99713.97;5055734;28;20029;-68
2021/05/06 13:18:30;;;;;;;2.05;1.20;;;;;;;21.48;43.12;99713.31;5057721;28;20029;-67
2021/05/06 13:20:56;;;;;;;1.13;0.82;;;;;;;21.26;42.16;99676.91;5054694;28;20036;-68
2021/05/06 13:23:31;;;;;;;1.67;1.17;;;;;;;21.41;42.09;99713.19;5052172;28;20048;-67
2021/05/06 13:26:02;;;;;;;2.38;1.02;;;;;;;21.38;42.05;99706.41;5053800;28;20024;-67
2021/05/06 13:28:33;;;;;;;1.50;1.00;;;;;;;21.35;42.16;99702.41;5054023;28;20025;-68
2021/05/06 13:31:28;;;;;;;2.05;1.10;;;;;;;21.39;42.13;99702.47;5038933;28;20029;-66
2021/05/06 13:34:16;;;;;;;5.70;1.10;;;;;;;21.35;41.22;99718.22;5049721;28;20032;-67
2021/05/06 13:36:43;;;;;;;3.78;1.10;;;;;;;21.33;41.51;99712.25;5053445;28;20029;-66
2021/05/06 13:39:12;;;;;;;2.28;1.10;;;;;;;21.32;41.69;99724.53;5054095;28;20047;-67
2021/05/06 13:41:46;;;;;;;2.58;1.23;;;;;;;21.30;41.59;99713.78;5054314;28;20040;-67
2021/05/06 13:44:18;;;;;;;4.55;1.25;;;;;;;21.28;41.74;99712.56;5043688;28;20027;-67
2021/05/06 13:46:54;;;;;;;3.95;1.27;;;;;;;21.25;42.15;99699.44;5054797;28;20040;-67
2021/05/06 13:49:29;;;;;;;3.90;1.25;;;;;;;21.29;42.06;99700.31;5053451;28;20056;-68
2021/05/06 13:51:56;;;;;;;2.15;1.40;;;;;;;21.28;41.76;99702.25;5047836;28;20478;-67
2021/05/06 13:54:22;;;;;;;5.45;1.35;;;;;;;21.34;41.65;99709.13;5046646;28;20044;-67
2021/05/06 13:56:48;;;;;;;2.15;1.17;;;;;;;21.32;41.78;99705.13;5053590;28;20032;-67
2021/05/06 13:59:14;;;;;;;2.75;1.15;;;;;;;21.11;41.42;99689.69;5053297;28;20028;-69
2021/05/06 14:01:40;;;;;;;2.28;1.20;;;;;;;21.30;41.61;99710.22;5054214;28;20029;-67
2021/05/06 14:04:06;;;;;;;2.53;1.15;;;;;;;21.19;41.56;99696.97;5053301;28;20036;-68
2021/05/06 14:06:33;;;;;;;2.88;1.10;;;;;;;21.28;41.58;99710.56;5053547;28;20090;-68
2021/05/06 14:08:58;;;;;;;4.72;1.25;;;;;;;21.17;41.33;99682.66;5053143;28;20396;-67
2021/05/06 14:11:26;;;;;;;5.70;1.60;;;;;;;21.16;41.74;99681.06;5044280;28;20552;-68
2021/05/06 14:13:56;;;;;;;3.63;1.20;;;;;;;21.25;41.75;99711.34;5052549;28;20021;-68
2021/05/06 14:16:22;;;;;;;3.95;1.00;;;;;;;21.18;41.45;99708.44;5057595;28;20028;-68
2021/05/06 14:18:50;;;;;;;1.98;1.25;;;;;;;21.12;41.01;99704.34;5047684;28;20093;-68
2021/05/06 14:21:17;;;;;;;4.90;1.20;;;;;;;21.15;40.91;99711.94;5053185;28;20029;-68
2021/05/06 14:23:44;;;;;;;2.97;1.20;;;;;;;21.10;40.33;99699.16;5045172;28;20032;-68
2021/05/06 14:26:10;;;;;;;9.90;1.33;;;;;;;21.03;40.56;99697.06;5053134;28;20435;-68
2021/05/06 14:28:36;;;;;;;1.95;1.00;;;;;;;21.06;40.32;99704.66;5052613;28;20478;-68
2021/05/06 14:31:02;;;;;;;5.75;1.35;;;;;;;20.99;40.20;99687.09;5049742;28;20751;-67
2021/05/06 14:33:28;;;;;;;1.35;0.98;;;;;;;21.03;40.33;99701.81;5040956;28;20512;-68
2021/05/06 14:35:53;;;;;;;3.05;1.10;;;;;;;21.05;40.32;99694.72;5050870;28;20591;-68
2021/05/06 14:38:19;;;;;;;7.50;1.55;;;;;;;20.99;40.53;99696.19;5049058;28;20025;-68
2021/05/06 14:40:44;;;;;;;3.78;1.00;;;;;;;20.95;40.57;99700.84;5047213;28;20091;-67
2021/05/06 14:43:09;;;;;;;4.63;1.25;;;;;;;20.92;40.45;99687.75;5031744;28;20036;-68
2021/05/06 14:45:35;;;;;;;4.15;1.00;;;;;;;20.95;40.53;99688.97;5049350;28;20021;-67
2021/05/06 14:48:02;;;;;;;3.35;1.27;;;;;;;20.93;40.52;99697.66;5049193;28;20037;-67
2021/05/06 14:50:29;;;;;;;3.15;1.00;;;;;;;20.96;40.76;99705.22;5050125;28;20447;-68
2021/05/06 14:52:55;;;;;;;3.33;0.93;;;;;;;20.96;41.02;99707.22;5045683;28;20029;-67
2021/05/06 14:55:22;;;;;;;4.40;1.00;;;;;;;20.94;41.30;99704.00;5051069;28;20028;-67
2021/05/06 14:57:48;;;;;;;4.30;1.45;;;;;;;20.88;42.54;99718.16;5045957;28;20114;-67
2021/05/06 15:00:15;;;;;;;3.25;1.42;;;;;;;20.81;43.12;99712.47;5046203;28;20037;-68
2021/05/06 15:02:42;;;;;;;5.22;1.38;;;;;;;20.87;43.61;99716.56;5047763;28;20110;-67
2021/05/06 15:05:08;;;;;;;4.43;1.63;;;;;;;20.87;43.85;99713.78;5043622;28;20044;-68
2021/05/06 15:07:33;;;;;;;3.95;1.42;;;;;;;20.83;44.42;99715.66;5049688;28;20463;-67
2021/05/06 15:09:59;;;;;;;4.43;1.50;;;;;;;20.80;44.54;99719.19;5045413;28;20025;-68